Southern View, Illinois
Current Conditions -  °F | °C
As of 8:52 AM on Friday 28 Nov 2014 (Local Time) from KSPI Reporting Station
Clear Clear  
Wind Chill: 13°   Ceiling: Unl
Heat Index: 27°   Visibility: 10mi
Dew Point: 21°   Wind: 21mph
Humidity: 78%   Direction: 160°SSE
Pressure: 30.2"   Gusts: NA
Location:  39.7587°N, 89.6325°W
Report Text: KSPI 281452Z 16018KT 10SM CLR M03/M06 A3020 RMK AO2 SLP238 T10281061 56026
Loading
Personal Weather Stations






























Interactive Weather Map New forecast layout! Learn more

10-Day Weather Forecast

Advertisements
Track Severe Weather on mobile